Brave M — 5IM425 — position and weather

sailwx.info

Track history (hours):
 
Tides and Currents Weather Stations Pressure Air Temp Water Temp Dewpoint Dewpoint Depression Visibility Wind Speed Wind Dir Waves Ship Positions

Brave M

Last reported at 2017-Sep-21 23:02 UTC. Time now 2017-Nov-19 18:23 UTC.
Position N 37°30' E 025°55'.
Warning: this ship's position is 58 days out of date.

Length 113 m; draft 8.5 m.

Type: Cargo ship. MMSI: 677032500.

Date/timePositionNaut miles runAvg speedWind from/ knotsBaromVisibWave heightAir tempDewpointWater temp
2017-Sep-21 23:02N 37°30' E 025°55'0 9.5
2017-Sep-21 23:00N 37°30' E 025°55'186 3.9
2017-Sep-19 22:55N 40°27' E 027°09'  
2017-Sep-17 03:13N 40°27' E 027°09'59 4.5
2017-Sep-16 14:12N 39°59' E 026°01'145 9.3
2017-Sep-15 22:40N 37°34' E 025°55'210.0
2017-Sep-15 22:30N 37°32' E 025°55'413 9.5
2017-Sep-14 03:15N 32°19' E 031°23'2 9.6
2017-Sep-14 03:00N 32°17' E 031°24'21 9.5
2017-Sep-14 00:49N 32°01' E 031°40'3 9.3
2017-Sep-14 00:30N 31°59' E 031°42'5 9.3
2017-Sep-13 23:57N 31°55' E 031°46'5 9.5
2017-Sep-13 23:27N 31°51' E 031°49'4 9.3
2017-Sep-13 23:00N 31°48' E 031°53'6 9.7
2017-Sep-13 22:20N 31°45' E 031°59'3 9.8
2017-Sep-13 22:00N 31°42' E 032°02'5 9.8
2017-Sep-13 21:30N 31°39' E 032°06'5 9.9
2017-Sep-13 21:00N 31°36' E 032°10'5 9.8
2017-Sep-13 20:30N 31°32' E 032°14'5 9.8
2017-Sep-13 20:00N 31°30' E 032°19'5 9.8
2017-Sep-13 19:30N 31°27' E 032°24'5 9.0
2017-Sep-13 19:00N 31°23' E 032°23'5 9.6
2017-Sep-13 18:30N 31°18' E 032°22'6 9.1
2017-Sep-13 17:54N 31°13' E 032°20'5 6.6
2017-Sep-13 17:09N 31°08' E 032°19'2 9.4
2017-Sep-13 16:56N 31°06' E 032°19'4 9.0
2017-Sep-13 16:30N 31°02' E 032°19'13 8.6
2017-Sep-13 15:01N 30°49' E 032°19'0 8.6
2017-Sep-13 14:59N 30°49' E 032°19'55 3.0
2017-Sep-12 20:30N 29°55' E 032°32'  
Track history (hours):
 
Tides and Currents Weather Stations Pressure Air Temp Water Temp Dewpoint Dewpoint Depression Visibility Wind Speed Wind Dir Waves Ship Positions

Brave M

Last reported at 2017-Sep-21 23:02 UTC. Time now 2017-Nov-19 18:23 UTC.
Position N 37°30' E 025°55'.
Warning: this ship's position is 58 days out of date.

Length 113 m; draft 8.5 m.

Type: Cargo ship. MMSI: 677032500.

Date/timePositionNaut miles runAvg speedWind from/ knotsBaromVisibWave heightAir tempDewpointWater temp
2017-Sep-21 23:02N 37°30' E 025°55'0 9.5
2017-Sep-21 23:00N 37°30' E 025°55'186 3.9
2017-Sep-19 22:55N 40°27' E 027°09'  
2017-Sep-17 03:13N 40°27' E 027°09'59 4.5
2017-Sep-16 14:12N 39°59' E 026°01'145 9.3
2017-Sep-15 22:40N 37°34' E 025°55'210.0
2017-Sep-15 22:30N 37°32' E 025°55'413 9.5
2017-Sep-14 03:15N 32°19' E 031°23'2 9.6
2017-Sep-14 03:00N 32°17' E 031°24'21 9.5
2017-Sep-14 00:49N 32°01' E 031°40'3 9.3
2017-Sep-14 00:30N 31°59' E 031°42'5 9.3
2017-Sep-13 23:57N 31°55' E 031°46'5 9.5
2017-Sep-13 23:27N 31°51' E 031°49'4 9.3
2017-Sep-13 23:00N 31°48' E 031°53'6 9.7
2017-Sep-13 22:20N 31°45' E 031°59'3 9.8
2017-Sep-13 22:00N 31°42' E 032°02'5 9.8
2017-Sep-13 21:30N 31°39' E 032°06'5 9.9
2017-Sep-13 21:00N 31°36' E 032°10'5 9.8
2017-Sep-13 20:30N 31°32' E 032°14'5 9.8
2017-Sep-13 20:00N 31°30' E 032°19'5 9.8
2017-Sep-13 19:30N 31°27' E 032°24'5 9.0
2017-Sep-13 19:00N 31°23' E 032°23'5 9.6
2017-Sep-13 18:30N 31°18' E 032°22'6 9.1
2017-Sep-13 17:54N 31°13' E 032°20'5 6.6
2017-Sep-13 17:09N 31°08' E 032°19'2 9.4
2017-Sep-13 16:56N 31°06' E 032°19'4 9.0
2017-Sep-13 16:30N 31°02' E 032°19'13 8.6
2017-Sep-13 15:01N 30°49' E 032°19'0 8.6
2017-Sep-13 14:59N 30°49' E 032°19'55 3.0
2017-Sep-12 20:30N 29°55' E 032°32'  

Dump ship's entire track history